createdAt,value
2023-06-07T00:00:28.752Z,33.70
2023-06-07T00:02:58.325Z,36.22
2023-06-07T00:05:25.600Z,35.50
2023-06-07T00:07:52.962Z,34.33
2023-06-07T00:10:20.093Z,31.27
2023-06-07T00:12:47.140Z,37.13
2023-06-07T00:15:14.261Z,43.60
2023-06-07T00:17:44.416Z,36.65
2023-06-07T00:20:12.662Z,52.92
2023-06-07T00:22:39.928Z,38.17
2023-06-07T00:25:09.692Z,37.97
2023-06-07T00:27:37.254Z,27.98
2023-06-07T00:30:05.253Z,48.55
2023-06-07T00:32:33.076Z,38.40
2023-06-07T00:35:00.343Z,41.58
2023-06-07T00:37:27.418Z,33.45
2023-06-07T00:39:54.514Z,29.60
2023-06-07T00:42:21.663Z,26.92
2023-06-07T00:44:48.730Z,31.50
2023-06-07T00:47:15.888Z,24.85
2023-06-07T00:49:45.353Z,23.30
2023-06-07T00:52:13.486Z,26.13
2023-06-07T00:54:41.233Z,33.75
2023-06-07T00:57:08.559Z,22.92
2023-06-07T00:59:36.746Z,20.10
2023-06-07T01:02:04.129Z,19.52
2023-06-07T01:04:32.151Z,20.33
2023-06-07T01:07:02.746Z,17.10
2023-06-07T01:09:30.798Z,20.17
2023-06-07T01:11:58.399Z,22.52
2023-06-07T01:14:26.608Z,32.25
2023-06-07T01:16:54.794Z,17.52
2023-06-07T01:19:29.693Z,19.23
2023-06-07T01:22:08.075Z,23.38
2023-06-07T01:24:37.004Z,21.98
2023-06-07T01:27:08.635Z,18.65
2023-06-07T01:29:36.389Z,19.52
2023-06-07T01:32:08.242Z,18.67
2023-06-07T01:34:36.613Z,15.75
2023-06-07T01:37:04.380Z,17.75
2023-06-07T01:39:33.195Z,18.58
2023-06-07T01:42:01.350Z,16.55
2023-06-07T01:44:30.492Z,20.80
2023-06-07T01:46:58.052Z,19.23
2023-06-07T01:49:25.071Z,19.38
2023-06-07T01:51:52.177Z,20.48
2023-06-07T01:54:19.620Z,16.63
2023-06-07T01:57:08.170Z,17.65
2023-06-07T02:00:23.192Z,24.23
2023-06-07T02:02:55.017Z,20.02
2023-06-07T02:05:38.677Z,14.20
2023-06-07T02:08:18.484Z,16.08
2023-06-07T02:10:47.370Z,20.00
2023-06-07T02:13:16.154Z,15.35
2023-06-07T02:15:47.097Z,18.92
2023-06-07T02:18:19.807Z,22.35
2023-06-07T02:20:46.980Z,26.35
2023-06-07T02:23:14.482Z,27.63
2023-06-07T02:25:41.520Z,20.67
2023-06-07T02:28:08.883Z,26.17
2023-06-07T02:30:36.417Z,23.05
2023-06-07T02:33:03.852Z,20.63
2023-06-07T02:35:30.945Z,40.08
2023-06-07T02:37:58.033Z,14.05
2023-06-07T02:40:25.106Z,18.17
2023-06-07T02:42:52.219Z,15.48
2023-06-07T02:45:19.458Z,19.33
2023-06-07T02:47:47.102Z,18.42
2023-06-07T02:50:14.300Z,16.95
2023-06-07T02:52:42.761Z,19.02
2023-06-07T02:55:10.141Z,15.50
2023-06-07T02:57:37.511Z,16.40
2023-06-07T03:00:10.128Z,24.65
2023-06-07T03:02:37.751Z,16.88
2023-06-07T03:05:06.601Z,17.42
2023-06-07T03:07:35.873Z,15.70
2023-06-07T03:10:07.034Z,21.98
2023-06-07T03:12:34.917Z,20.38
2023-06-07T03:15:01.956Z,20.48
2023-06-07T03:17:29.808Z,21.63
2023-06-07T03:19:57.885Z,22.13
2023-06-07T03:22:24.927Z,17.02
2023-06-07T03:24:53.479Z,21.75
2023-06-07T03:27:25.174Z,18.10
2023-06-07T03:29:52.409Z,18.02
2023-06-07T03:32:19.480Z,26.38
2023-06-07T03:34:46.625Z,16.85
2023-06-07T03:37:13.719Z,22.67
2023-06-07T03:39:40.748Z,20.27
2023-06-07T03:42:08.430Z,20.88
2023-06-07T03:44:35.499Z,22.30
2023-06-07T03:47:02.899Z,24.25
2023-06-07T03:49:29.941Z,23.65
2023-06-07T03:51:57.165Z,22.98
2023-06-07T03:54:24.235Z,29.55
2023-06-07T03:56:51.369Z,28.20
2023-06-07T03:59:20.534Z,20.65
2023-06-07T04:01:49.523Z,34.88
2023-06-07T04:04:16.792Z,20.35
2023-06-07T04:06:44.468Z,22.52
2023-06-07T04:09:11.718Z,26.85
2023-06-07T04:11:38.791Z,23.02
2023-06-07T04:14:05.919Z,24.73
2023-06-07T04:16:33.071Z,25.25
2023-06-07T04:19:02.278Z,26.08
2023-06-07T04:21:29.787Z,21.92
2023-06-07T04:23:58.210Z,24.15
2023-06-07T04:26:25.482Z,20.27
2023-06-07T04:28:52.530Z,28.50
2023-06-07T04:31:23.533Z,32.47
2023-06-07T04:33:50.745Z,34.10
2023-06-07T04:36:19.991Z,31.08
2023-06-07T04:38:57.726Z,27.00
2023-06-07T04:41:33.870Z,22.45
2023-06-07T04:44:01.880Z,24.75
2023-06-07T04:46:29.788Z,20.77
2023-06-07T04:48:57.227Z,19.73
2023-06-07T04:51:27.301Z,23.35
2023-06-07T04:54:02.644Z,28.30
2023-06-07T04:58:57.813Z,19.35
2023-06-07T05:01:25.551Z,20.63
2023-06-07T05:04:01.236Z,19.58
2023-06-07T05:08:57.186Z,19.25
2023-06-07T05:11:24.414Z,20.17
2023-06-07T05:13:51.480Z,33.17
2023-06-07T05:16:18.870Z,20.38
2023-06-07T05:18:50.144Z,20.98
2023-06-07T05:21:17.851Z,30.05
2023-06-07T05:23:45.532Z,22.67
2023-06-07T05:26:12.966Z,18.13
2023-06-07T05:28:40.040Z,19.80
2023-06-07T05:31:09.634Z,30.88
2023-06-07T05:33:38.320Z,18.70
2023-06-07T05:36:05.775Z,20.55
2023-06-07T05:38:32.843Z,24.77
2023-06-07T05:41:00.009Z,24.02
2023-06-07T05:43:27.054Z,22.48
2023-06-07T05:45:54.126Z,20.20
2023-06-07T05:48:21.282Z,20.63
2023-06-07T05:50:48.767Z,22.67
2023-06-07T05:53:16.808Z,21.88
2023-06-07T05:55:46.330Z,24.98
2023-06-07T05:58:13.504Z,31.65
2023-06-07T06:00:41.831Z,23.13
2023-06-07T06:03:09.661Z,23.25
2023-06-07T06:05:36.881Z,24.33
2023-06-07T06:08:04.214Z,21.30
2023-06-07T06:10:33.118Z,19.02
2023-06-07T06:13:02.771Z,24.58
2023-06-07T06:15:30.083Z,27.90
2023-06-07T06:17:57.256Z,22.90
2023-06-07T06:20:24.379Z,23.98
2023-06-07T06:22:51.539Z,23.92
2023-06-07T06:25:18.692Z,23.85
2023-06-07T06:27:46.029Z,28.20
2023-06-07T06:30:13.449Z,26.38
2023-06-07T06:32:41.269Z,25.52
2023-06-07T06:35:09.294Z,25.45
2023-06-07T06:37:36.952Z,28.52
2023-06-07T06:40:06.139Z,28.42
2023-06-07T06:42:33.574Z,23.55
2023-06-07T06:45:01.032Z,26.27
2023-06-07T06:47:28.175Z,22.73
2023-06-07T06:49:55.402Z,28.42
2023-06-07T06:52:22.533Z,27.23
2023-06-07T06:54:49.676Z,26.52
2023-06-07T06:57:16.739Z,27.52
2023-06-07T06:59:43.862Z,27.27
2023-06-07T07:02:12.291Z,29.45
2023-06-07T07:04:39.483Z,27.05
2023-06-07T07:07:07.078Z,28.17
2023-06-07T07:09:34.730Z,26.45
2023-06-07T07:12:01.867Z,26.70
2023-06-07T07:14:28.913Z,31.02
2023-06-07T07:16:56.077Z,26.08
2023-06-07T07:19:23.354Z,25.10
2023-06-07T07:21:50.470Z,30.10
2023-06-07T07:24:17.822Z,29.20
2023-06-07T07:26:45.102Z,26.58
2023-06-07T07:29:12.604Z,28.65
2023-06-07T07:31:40.227Z,31.42
2023-06-07T07:34:07.390Z,35.00
2023-06-07T07:36:37.520Z,27.88
2023-06-07T07:39:07.388Z,36.17
2023-06-07T07:41:35.194Z,37.95
2023-06-07T07:44:02.766Z,29.30
2023-06-07T07:46:29.922Z,32.45
2023-06-07T07:48:57.205Z,39.17
2023-06-07T07:51:24.551Z,35.95
2023-06-07T07:53:55.141Z,31.10
2023-06-07T07:56:25.046Z,36.95
2023-06-07T07:58:52.357Z,32.17
2023-06-07T08:01:23.575Z,31.63
2023-06-07T08:03:52.245Z,40.72
2023-06-07T08:06:19.459Z,34.97
2023-06-07T08:08:49.663Z,36.28
2023-06-07T08:11:16.720Z,35.15
2023-06-07T08:13:43.805Z,37.22
2023-06-07T08:16:11.266Z,33.45
2023-06-07T08:18:39.367Z,41.45
2023-06-07T08:21:06.661Z,41.40
2023-06-07T08:23:33.742Z,28.98
2023-06-07T08:26:03.170Z,37.28
2023-06-07T08:28:30.935Z,41.15
2023-06-07T08:30:58.021Z,42.78
2023-06-07T08:33:25.092Z,41.42
2023-06-07T08:35:52.269Z,32.90
2023-06-07T08:38:19.277Z,36.22
2023-06-07T08:40:46.881Z,38.17
2023-06-07T08:43:14.015Z,37.10
2023-06-07T08:45:42.731Z,36.90
2023-06-07T08:48:13.334Z,33.63
2023-06-07T08:50:42.564Z,33.33
2023-06-07T08:53:15.792Z,35.53
2023-06-07T08:55:45.081Z,35.83
2023-06-07T08:58:13.007Z,38.10
2023-06-07T09:00:40.629Z,31.50
2023-06-07T09:03:07.905Z,36.75
2023-06-07T09:05:35.025Z,38.63
2023-06-07T09:08:05.110Z,41.03
2023-06-07T09:10:32.298Z,36.90
2023-06-07T09:12:59.383Z,37.45
2023-06-07T09:15:28.348Z,34.40
2023-06-07T09:18:00.993Z,36.40
2023-06-07T09:20:34.489Z,36.67
2023-06-07T09:23:14.398Z,43.97
2023-06-07T09:25:47.814Z,39.78
2023-06-07T09:28:16.294Z,46.88
2023-06-07T09:30:58.124Z,35.22
2023-06-07T09:33:31.055Z,41.20
2023-06-07T09:36:14.380Z,45.50
2023-06-07T09:38:42.975Z,46.05
2023-06-07T09:41:14.346Z,41.38
2023-06-07T09:43:51.806Z,43.00
2023-06-07T09:46:20.584Z,39.45
2023-06-07T09:48:50.080Z,38.08
2023-06-07T09:51:19.621Z,35.83
2023-06-07T09:54:13.264Z,29.13
2023-06-07T09:56:41.477Z,29.27
2023-06-07T09:59:17.772Z,30.27
2023-06-07T10:01:48.450Z,27.50
2023-06-07T10:04:15.780Z,27.95
2023-06-07T10:06:46.669Z,33.03
2023-06-07T10:09:17.610Z,30.23
2023-06-07T10:11:47.697Z,29.50
2023-06-07T10:14:20.015Z,25.27
2023-06-07T10:17:00.044Z,23.00
2023-06-07T10:19:48.400Z,25.85
2023-06-07T10:22:25.089Z,21.05
2023-06-07T10:25:24.565Z,19.73
2023-06-07T10:28:22.924Z,26.33
2023-06-07T10:30:56.652Z,24.30
2023-06-07T10:33:26.491Z,25.02
2023-06-07T10:35:54.898Z,22.70
2023-06-07T10:38:22.000Z,22.42
2023-06-07T10:40:49.204Z,24.70
2023-06-07T10:43:16.532Z,34.00
2023-06-07T10:45:43.768Z,30.52
2023-06-07T10:48:36.438Z,33.50
2023-06-07T10:51:03.896Z,30.52
2023-06-07T10:53:53.851Z,29.05
2023-06-07T10:56:52.172Z,28.20
2023-06-07T10:59:23.848Z,29.98
2023-06-07T11:01:53.565Z,29.98
2023-06-07T11:04:36.328Z,32.83
2023-06-07T11:07:42.479Z,25.70
2023-06-07T11:10:09.764Z,24.52
2023-06-07T11:12:37.471Z,25.65
2023-06-07T11:15:21.591Z,28.92
2023-06-07T11:18:06.938Z,38.83
2023-06-07T11:20:37.594Z,30.27
2023-06-07T11:23:35.347Z,29.23
2023-06-07T11:26:16.070Z,17.67
2023-06-07T11:28:43.325Z,17.00
2023-06-07T11:31:13.189Z,21.27
2023-06-07T11:33:44.683Z,22.67
2023-06-07T11:36:12.368Z,19.30
2023-06-07T11:38:40.723Z,16.60
2023-06-07T11:41:07.981Z,17.45
2023-06-07T11:43:35.253Z,14.63
2023-06-07T11:46:02.444Z,16.13
2023-06-07T11:48:31.150Z,18.65
2023-06-07T11:51:00.595Z,15.05
2023-06-07T11:53:30.668Z,16.75
2023-06-07T11:56:02.597Z,13.65
2023-06-07T11:58:31.283Z,14.98
2023-06-07T12:00:59.137Z,11.75
2023-06-07T12:03:27.753Z,13.73
2023-06-07T12:05:55.546Z,12.98
2023-06-07T12:08:29.118Z,15.80
2023-06-07T12:10:57.027Z,18.65
2023-06-07T12:13:24.834Z,15.57
2023-06-07T12:15:57.557Z,14.55
2023-06-07T12:18:30.414Z,16.10
2023-06-07T12:21:11.139Z,17.20
2023-06-07T12:23:45.677Z,19.42
2023-06-07T12:26:16.821Z,18.23
2023-06-07T12:28:45.006Z,13.85
2023-06-07T12:31:21.641Z,15.57
2023-06-07T12:34:09.929Z,16.88
2023-06-07T12:36:39.973Z,18.17
2023-06-07T12:39:12.387Z,15.90
2023-06-07T12:41:40.320Z,18.33
2023-06-07T12:44:11.276Z,19.75
2023-06-07T12:46:38.657Z,25.17
2023-06-07T12:49:06.499Z,18.17
2023-06-07T12:51:34.544Z,21.48
2023-06-07T12:54:02.180Z,18.90
2023-06-07T12:56:30.560Z,16.02
2023-06-07T12:58:58.014Z,15.02
2023-06-07T13:01:25.696Z,18.17
2023-06-07T13:03:53.536Z,18.50
2023-06-07T13:06:21.910Z,14.02
2023-06-07T13:09:03.001Z,12.60
2023-06-07T13:11:30.158Z,12.57
2023-06-07T13:13:57.294Z,13.00
2023-06-07T13:16:24.451Z,12.55
2023-06-07T13:18:52.541Z,14.40
2023-06-07T13:21:19.672Z,13.57
2023-06-07T13:23:46.736Z,17.05
2023-06-07T13:26:14.683Z,12.15
2023-06-07T13:28:45.290Z,13.88
2023-06-07T13:31:13.187Z,17.23
2023-06-07T13:33:42.037Z,14.23
2023-06-07T13:36:09.440Z,13.20
2023-06-07T13:38:38.683Z,18.73
2023-06-07T13:41:06.515Z,19.60
2023-06-07T13:46:03.981Z,24.15
2023-06-07T13:48:32.354Z,13.63
2023-06-07T13:50:59.861Z,18.13
2023-06-07T13:53:28.033Z,17.73
2023-06-07T13:55:57.554Z,20.65
2023-06-07T13:58:25.896Z,17.33
2023-06-07T14:00:53.032Z,21.70
2023-06-07T14:03:21.235Z,14.18
2023-06-07T14:05:48.372Z,16.95
2023-06-07T14:08:15.607Z,18.02
2023-06-07T14:10:42.701Z,14.82
2023-06-07T14:13:09.784Z,17.83
2023-06-07T14:15:36.933Z,21.27
2023-06-07T14:18:04.253Z,19.52
2023-06-07T14:20:31.417Z,16.77
2023-06-07T14:22:58.729Z,15.88
2023-06-07T14:25:26.074Z,19.40
2023-06-07T14:27:53.175Z,16.35
2023-06-07T14:30:20.627Z,20.92
2023-06-07T14:32:48.055Z,26.65
2023-06-07T14:35:18.008Z,16.10
2023-06-07T14:37:45.166Z,20.80
2023-06-07T14:48:47.147Z,17.08
2023-06-07T14:51:16.460Z,20.00
2023-06-07T14:53:43.482Z,15.23
2023-06-07T14:56:10.564Z,15.35
2023-06-07T14:58:37.687Z,20.70
2023-06-07T15:01:04.849Z,13.98
2023-06-07T15:03:32.448Z,12.40
2023-06-07T15:05:59.496Z,11.20
2023-06-07T15:08:29.399Z,8.60
2023-06-07T15:10:58.971Z,8.60
2023-06-07T15:13:26.359Z,12.15
2023-06-07T15:15:53.510Z,6.80
2023-06-07T15:18:21.860Z,6.25
2023-06-07T15:20:49.033Z,7.70
2023-06-07T15:23:16.185Z,8.13
2023-06-07T15:25:43.231Z,11.43
2023-06-07T15:28:10.315Z,10.50
2023-06-07T15:30:37.388Z,18.98
2023-06-07T15:33:05.157Z,11.57
2023-06-07T15:35:32.311Z,7.97
2023-06-07T15:37:59.385Z,8.52
2023-06-07T15:40:26.429Z,16.27
2023-06-07T15:42:53.578Z,10.60
2023-06-07T15:45:20.679Z,12.32
2023-06-07T15:48:02.262Z,16.25
2023-06-07T15:50:30.449Z,18.08
2023-06-07T15:52:59.039Z,18.20
2023-06-07T15:55:28.720Z,12.40
2023-06-07T15:57:56.513Z,14.63
2023-06-07T16:00:37.086Z,12.75
2023-06-07T16:03:06.314Z,10.60
2023-06-07T16:05:33.607Z,11.57
2023-06-07T16:08:12.456Z,17.05
2023-06-07T16:10:40.911Z,14.23
2023-06-07T16:13:08.132Z,18.33
2023-06-07T16:15:35.600Z,13.38
2023-06-07T16:18:02.838Z,16.10
2023-06-07T16:20:29.964Z,10.18
2023-06-07T16:22:57.051Z,14.95
2023-06-07T16:25:24.477Z,11.40
2023-06-07T16:27:51.724Z,12.20
2023-06-07T16:30:19.150Z,10.38
2023-06-07T16:32:46.775Z,13.63
2023-06-07T16:35:14.062Z,9.35
2023-06-07T16:37:41.117Z,11.45
2023-06-07T16:40:09.329Z,13.55
2023-06-07T16:42:36.828Z,10.60
2023-06-07T16:45:04.205Z,10.57
2023-06-07T16:47:31.696Z,11.27
2023-06-07T16:49:58.802Z,10.48
2023-06-07T16:52:25.851Z,11.48
2023-06-07T16:54:53.016Z,9.73
2023-06-07T16:57:20.678Z,8.82
2023-06-07T16:59:47.937Z,10.50
2023-06-07T17:02:15.054Z,10.32
2023-06-07T17:04:42.300Z,8.70
2023-06-07T17:07:09.555Z,10.38
2023-06-07T17:09:36.677Z,13.10
2023-06-07T17:12:04.095Z,19.60
2023-06-07T17:14:31.150Z,11.07
2023-06-07T17:16:58.205Z,17.20
2023-06-07T17:19:25.543Z,13.10
2023-06-07T17:21:52.645Z,12.13
2023-06-07T17:24:20.946Z,13.95
2023-06-07T17:26:48.190Z,12.20
2023-06-07T17:29:28.739Z,13.38
2023-06-07T17:31:56.734Z,14.27
2023-06-07T17:34:23.826Z,16.85
2023-06-07T17:36:51.040Z,21.85
2023-06-07T17:39:19.776Z,12.02
2023-06-07T17:41:46.999Z,11.63
2023-06-07T17:44:14.111Z,12.23
2023-06-07T17:46:41.631Z,18.20
2023-06-07T17:49:08.719Z,12.85
2023-06-07T17:51:37.181Z,14.10
2023-06-07T17:54:05.828Z,15.02
2023-06-07T17:56:33.017Z,10.57
2023-06-07T17:59:00.171Z,13.85
2023-06-07T18:01:27.400Z,20.30
2023-06-07T18:03:55.310Z,13.68
2023-06-07T18:06:27.188Z,11.73
2023-06-07T18:08:54.355Z,14.63
2023-06-07T18:11:21.720Z,17.00
2023-06-07T18:13:48.781Z,15.93
2023-06-07T18:16:15.926Z,12.07
2023-06-07T18:18:43.083Z,22.27
2023-06-07T18:21:11.181Z,20.13
2023-06-07T18:23:38.929Z,16.50
2023-06-07T18:26:07.498Z,14.45
2023-06-07T18:28:34.851Z,14.85
2023-06-07T18:31:02.165Z,17.23
2023-06-07T18:33:30.007Z,16.40
2023-06-07T18:35:57.766Z,17.55
2023-06-07T18:38:26.176Z,15.30
2023-06-07T18:40:53.575Z,13.77
2023-06-07T18:43:21.046Z,15.52
2023-06-07T18:45:48.709Z,16.73
2023-06-07T18:48:17.746Z,16.80
2023-06-07T18:50:45.000Z,17.52
2023-06-07T18:53:12.716Z,23.00
2023-06-07T18:55:40.137Z,20.80
2023-06-07T18:58:09.245Z,21.75
2023-06-07T19:00:37.777Z,25.73
2023-06-07T19:03:05.126Z,24.42
2023-06-07T19:05:32.806Z,32.95
2023-06-07T19:08:00.122Z,20.30
2023-06-07T19:10:27.598Z,24.92
2023-06-07T19:12:54.716Z,20.65
2023-06-07T19:15:21.950Z,18.58
2023-06-07T19:17:49.079Z,23.70
2023-06-07T19:20:17.981Z,19.98
2023-06-07T19:22:47.071Z,24.10
2023-06-07T19:25:14.263Z,19.63
2023-06-07T19:27:42.790Z,19.70
2023-06-07T19:30:10.970Z,16.90
2023-06-07T19:32:38.086Z,24.23
2023-06-07T19:35:06.247Z,17.83
2023-06-07T19:37:34.021Z,21.50
2023-06-07T19:40:08.292Z,16.90
2023-06-07T19:42:39.174Z,20.50
2023-06-07T19:45:09.693Z,16.08
2023-06-07T19:47:37.686Z,20.75
2023-06-07T19:50:07.757Z,24.67
2023-06-07T19:52:35.024Z,21.42
2023-06-07T19:55:02.085Z,18.15
2023-06-07T19:57:29.572Z,15.98
2023-06-07T19:59:56.633Z,15.57
2023-06-07T20:02:23.849Z,15.93
2023-06-07T20:04:50.953Z,19.42
2023-06-07T20:07:18.388Z,17.80
2023-06-07T20:09:45.466Z,16.48
2023-06-07T20:12:12.849Z,14.80
2023-06-07T20:14:41.016Z,17.08
2023-06-07T20:17:10.223Z,13.93
2023-06-07T20:19:37.560Z,14.95
2023-06-07T20:22:05.060Z,21.42
2023-06-07T20:24:32.158Z,17.50
2023-06-07T20:26:59.213Z,13.77
2023-06-07T20:29:26.352Z,21.75
2023-06-07T20:31:56.176Z,21.30
2023-06-07T20:34:24.806Z,15.82
2023-06-07T20:36:54.190Z,13.90
2023-06-07T20:39:22.258Z,19.27
2023-06-07T20:41:50.368Z,15.98
2023-06-07T20:44:18.423Z,19.17
2023-06-07T20:46:46.408Z,22.08
2023-06-07T20:49:14.367Z,17.00
2023-06-07T20:51:42.368Z,18.60
2023-06-07T20:54:10.567Z,18.95
2023-06-07T20:56:38.710Z,17.95
2023-06-07T20:59:06.553Z,16.70
2023-06-07T21:01:35.234Z,18.48
2023-06-07T21:04:02.579Z,20.50
2023-06-07T21:06:30.450Z,19.60
2023-06-07T21:08:57.467Z,25.83
2023-06-07T21:11:27.155Z,23.33
2023-06-07T21:13:54.482Z,18.02
2023-06-07T21:16:21.616Z,21.27
2023-06-07T21:18:48.679Z,19.40
2023-06-07T21:21:15.808Z,17.50
2023-06-07T21:23:43.021Z,18.20
2023-06-07T21:26:10.320Z,17.85
2023-06-07T21:28:37.687Z,18.35
2023-06-07T21:31:04.855Z,26.33
2023-06-07T21:33:32.005Z,20.73
2023-06-07T21:35:59.108Z,17.50
2023-06-07T21:38:26.376Z,24.92
2023-06-07T21:40:53.405Z,23.55
2023-06-07T21:43:23.493Z,26.15
2023-06-07T21:45:50.681Z,18.25
2023-06-07T21:48:17.803Z,21.65
2023-06-07T21:50:44.932Z,17.67
2023-06-07T21:53:12.018Z,27.60
2023-06-07T21:55:39.148Z,18.75
2023-06-07T21:58:06.409Z,21.08
2023-06-07T22:00:33.460Z,20.90
2023-06-07T22:03:00.596Z,19.30
2023-06-07T22:05:27.685Z,20.30
2023-06-07T22:07:54.772Z,28.02
2023-06-07T22:10:21.866Z,21.73
2023-06-07T22:12:54.490Z,26.40
2023-06-07T22:15:22.702Z,20.67
2023-06-07T22:17:54.629Z,19.98
2023-06-07T22:20:24.625Z,29.80
2023-06-07T22:22:52.658Z,18.60
2023-06-07T22:25:31.300Z,21.00
2023-06-07T22:28:13.686Z,27.75
2023-06-07T22:30:42.168Z,27.38
2023-06-07T22:33:10.124Z,34.08
2023-06-07T22:35:38.533Z,27.98
2023-06-07T22:38:07.185Z,27.08
2023-06-07T22:40:37.726Z,27.23
2023-06-07T22:43:05.325Z,23.73
2023-06-07T22:45:32.688Z,22.15
2023-06-07T22:48:11.152Z,24.50
2023-06-07T22:50:43.146Z,24.75
2023-06-07T22:53:15.250Z,24.38
2023-06-07T22:55:43.150Z,19.85
2023-06-07T22:58:10.633Z,20.55
2023-06-07T23:00:38.153Z,22.98
2023-06-07T23:03:08.474Z,26.23
2023-06-07T23:05:36.901Z,25.95
2023-06-07T23:08:04.071Z,21.63
2023-06-07T23:10:36.828Z,29.20
2023-06-07T23:13:10.228Z,20.27
2023-06-07T23:15:42.171Z,18.85
2023-06-07T23:18:12.869Z,20.05
2023-06-07T23:20:41.993Z,26.48
2023-06-07T23:23:11.302Z,23.80
2023-06-07T23:25:39.429Z,29.98
2023-06-07T23:28:06.917Z,18.75
2023-06-07T23:30:34.649Z,26.15
2023-06-07T23:33:02.445Z,22.50
2023-06-07T23:35:29.627Z,23.17
2023-06-07T23:37:56.676Z,30.83
2023-06-07T23:40:24.048Z,22.83
2023-06-07T23:42:54.205Z,17.65
2023-06-07T23:45:22.097Z,19.40
2023-06-07T23:47:49.408Z,26.13
2023-06-07T23:50:16.539Z,20.58
2023-06-07T23:52:43.615Z,20.50
2023-06-07T23:55:10.952Z,24.85
2023-06-07T23:57:38.030Z,36.65
